createdAt,value
2023-06-01T00:02:24.185Z,98671.50
2023-06-01T00:04:51.308Z,98677.78
2023-06-01T00:07:18.162Z,98682.91
2023-06-01T00:09:44.670Z,98686.75
2023-06-01T00:12:11.920Z,98683.88
2023-06-01T00:14:38.804Z,98683.84
2023-06-01T00:17:06.796Z,98678.56
2023-06-01T00:19:33.881Z,98684.97
2023-06-01T00:22:01.025Z,98682.84
2023-06-01T00:24:27.650Z,98691.63
2023-06-01T00:26:54.353Z,98674.28
2023-06-01T00:29:21.921Z,98675.72
2023-06-01T00:31:48.591Z,98678.00
2023-06-01T00:34:15.581Z,98681.63
2023-06-01T00:36:42.197Z,98674.13
2023-06-01T00:39:11.686Z,98672.88
2023-06-01T00:41:38.472Z,98688.97
2023-06-01T00:44:05.725Z,98677.34
2023-06-01T00:46:33.072Z,98676.06
2023-06-01T00:49:00.221Z,98671.72
2023-06-01T00:51:27.714Z,98673.41
2023-06-01T00:53:54.533Z,98676.00
2023-06-01T00:56:22.470Z,98678.09
2023-06-01T00:58:49.623Z,98680.84
2023-06-01T01:01:24.194Z,98676.00
2023-06-01T01:03:58.645Z,98680.56
2023-06-01T01:06:57.415Z,98678.03
2023-06-01T01:09:33.253Z,98675.63
2023-06-01T01:12:13.742Z,98678.38
2023-06-01T01:14:48.456Z,98668.84
2023-06-01T01:17:35.568Z,98672.09
2023-06-01T01:20:16.567Z,98670.94
2023-06-01T01:23:07.819Z,98668.53
2023-06-01T01:25:53.002Z,98662.25
2023-06-01T01:28:49.859Z,98668.41
2023-06-01T01:31:24.524Z,98674.56
2023-06-01T01:33:53.913Z,98669.72
2023-06-01T01:36:21.426Z,98663.97
2023-06-01T01:38:48.286Z,98660.63
2023-06-01T01:41:15.279Z,98666.44
2023-06-01T01:43:43.722Z,98667.47
2023-06-01T01:46:28.847Z,98663.44
2023-06-01T01:49:18.589Z,98666.97
2023-06-01T01:51:58.767Z,98657.50
2023-06-01T01:54:26.643Z,98651.22
2023-06-01T01:56:59.113Z,98652.66
2023-06-01T01:59:27.970Z,98650.59
2023-06-01T02:01:54.870Z,98663.84
2023-06-01T02:04:21.493Z,98666.75
2023-06-01T02:06:48.122Z,98661.94
2023-06-01T02:09:15.130Z,98659.41
2023-06-01T02:11:41.678Z,98655.88
2023-06-01T02:14:08.235Z,98656.84
2023-06-01T02:16:35.025Z,98655.88
2023-06-01T02:19:03.917Z,98658.16
2023-06-01T02:21:30.644Z,98652.38
2023-06-01T02:23:57.465Z,98655.13
2023-06-01T02:26:24.057Z,98652.72
2023-06-01T02:28:50.975Z,98653.69
2023-06-01T02:31:17.498Z,98643.94
2023-06-01T02:33:44.042Z,98648.44
2023-06-01T02:36:11.582Z,98652.94
2023-06-01T02:38:38.126Z,98647.94
2023-06-01T02:41:05.128Z,98652.28
2023-06-01T02:43:35.500Z,98654.38
2023-06-01T02:46:02.810Z,98649.53
2023-06-01T02:48:29.734Z,98653.41
2023-06-01T02:50:56.553Z,98646.84
2023-06-01T02:53:23.807Z,98648.31
2023-06-01T02:55:50.542Z,98643.66
2023-06-01T02:58:17.632Z,98654.47
2023-06-01T03:00:44.714Z,98654.00
2023-06-01T03:03:11.591Z,98648.38
2023-06-01T03:05:38.207Z,98654.97
2023-06-01T03:08:07.436Z,98651.44
2023-06-01T03:10:34.072Z,98649.50
2023-06-01T03:13:02.295Z,98651.13
2023-06-01T03:15:28.822Z,98656.94
2023-06-01T03:17:55.465Z,98653.25
2023-06-01T03:20:22.509Z,98661.63
2023-06-01T03:22:49.331Z,98665.34
2023-06-01T03:25:17.779Z,98668.38
2023-06-01T03:27:46.063Z,98666.78
2023-06-01T03:30:13.152Z,98669.84
2023-06-01T03:32:42.533Z,98674.97
2023-06-01T03:35:10.892Z,98668.38
2023-06-01T03:37:39.389Z,98671.59
2023-06-01T03:40:12.750Z,98672.44
2023-06-01T03:42:41.533Z,98678.69
2023-06-01T03:45:09.777Z,98676.47
2023-06-01T03:47:36.839Z,98671.63
2023-06-01T03:50:05.138Z,98679.38
2023-06-01T03:52:31.663Z,98671.78
2023-06-01T03:55:02.419Z,98668.09
2023-06-01T03:57:29.603Z,98682.41
2023-06-01T03:59:56.177Z,98679.69
2023-06-01T04:02:24.200Z,98678.53
2023-06-01T04:04:51.055Z,98676.16
2023-06-01T04:07:20.740Z,98678.56
2023-06-01T04:09:47.565Z,98697.03
2023-06-01T04:12:15.122Z,98691.75
2023-06-01T04:14:42.061Z,98691.59
2023-06-01T04:17:09.004Z,98683.06
2023-06-01T04:19:35.751Z,98690.44
2023-06-01T04:22:02.538Z,98683.19
2023-06-01T04:24:30.995Z,98683.03
2023-06-01T04:26:57.789Z,98681.25
2023-06-01T04:29:26.037Z,98690.25
2023-06-01T04:31:52.646Z,98691.53
2023-06-01T04:34:19.480Z,98702.31
2023-06-01T04:36:47.490Z,98689.09
2023-06-01T04:39:14.282Z,98692.94
2023-06-01T04:41:40.941Z,98688.56
2023-06-01T04:44:08.311Z,98690.63
2023-06-01T04:46:36.373Z,98684.66
2023-06-01T04:49:03.827Z,98679.63
2023-06-01T04:51:32.718Z,98686.34
2023-06-01T04:54:00.150Z,98686.09
2023-06-01T04:56:28.090Z,98692.16
2023-06-01T04:58:56.812Z,98684.69
2023-06-01T05:01:27.128Z,98690.81
2023-06-01T05:03:56.072Z,98696.84
2023-06-01T05:06:23.753Z,98690.78
2023-06-01T05:08:50.614Z,98698.88
2023-06-01T05:11:17.460Z,98697.13
2023-06-01T05:13:45.454Z,98694.94
2023-06-01T05:16:12.129Z,98695.19
2023-06-01T05:18:40.741Z,98699.41
2023-06-01T05:21:07.234Z,98704.09
2023-06-01T05:23:34.045Z,98709.19
2023-06-01T05:26:03.642Z,98709.22
2023-06-01T05:28:33.275Z,98698.28
2023-06-01T05:31:01.846Z,98713.38
2023-06-01T05:33:29.111Z,98700.13
2023-06-01T05:35:55.756Z,98708.63
2023-06-01T05:38:22.385Z,98706.38
2023-06-01T05:40:48.929Z,98706.75
2023-06-01T05:43:16.589Z,98710.63
2023-06-01T05:45:44.668Z,98712.50
2023-06-01T05:48:14.895Z,98706.66
2023-06-01T05:50:42.625Z,98700.09
2023-06-01T05:53:10.791Z,98696.50
2023-06-01T05:55:37.533Z,98699.31
2023-06-01T05:58:04.354Z,98696.72
2023-06-01T06:00:31.304Z,98707.13
2023-06-01T06:02:58.160Z,98695.97
2023-06-01T06:05:24.740Z,98700.59
2023-06-01T06:07:51.696Z,98702.84
2023-06-01T06:10:18.476Z,98703.50
2023-06-01T06:12:45.264Z,98701.22
2023-06-01T06:15:11.805Z,98706.38
2023-06-01T06:17:38.328Z,98701.44
2023-06-01T06:20:08.595Z,98703.81
2023-06-01T06:22:35.464Z,98702.34
2023-06-01T06:25:02.381Z,98706.22
2023-06-01T06:27:28.977Z,98706.31
2023-06-01T06:29:55.527Z,98709.75
2023-06-01T06:32:22.931Z,98707.19
2023-06-01T06:34:49.554Z,98712.53
2023-06-01T06:37:16.355Z,98706.97
2023-06-01T06:39:43.125Z,98706.16
2023-06-01T06:42:09.943Z,98715.16
2023-06-01T06:44:36.700Z,98707.16
2023-06-01T06:47:03.321Z,98713.34
2023-06-01T06:49:30.276Z,98709.44
2023-06-01T06:51:57.398Z,98708.44
2023-06-01T06:54:24.351Z,98704.03
2023-06-01T06:56:50.999Z,98706.75
2023-06-01T06:59:18.294Z,98708.22
2023-06-01T07:01:44.919Z,98702.78
2023-06-01T07:04:11.893Z,98713.63
2023-06-01T07:06:38.582Z,98709.34
2023-06-01T07:09:07.008Z,98715.25
2023-06-01T07:11:33.711Z,98713.28
2023-06-01T07:14:01.019Z,98709.00
2023-06-01T07:16:30.446Z,98713.19
2023-06-01T07:18:57.954Z,98716.28
2023-06-01T07:21:24.863Z,98709.22
2023-06-01T07:23:51.638Z,98705.81
2023-06-01T07:26:18.148Z,98710.00
2023-06-01T07:28:45.170Z,98698.88
2023-06-01T07:31:11.884Z,98709.47
2023-06-01T07:33:38.863Z,98702.19
2023-06-01T07:36:08.680Z,98700.09
2023-06-01T07:38:35.293Z,98702.88
2023-06-01T07:41:02.661Z,98696.69
2023-06-01T07:43:29.388Z,98699.59
2023-06-01T07:45:56.735Z,98696.25
2023-06-01T07:48:23.650Z,98695.97
2023-06-01T07:50:52.399Z,98695.81
2023-06-01T07:53:19.890Z,98696.84
2023-06-01T07:55:46.644Z,98696.19
2023-06-01T07:58:13.478Z,98693.44
2023-06-01T08:00:40.620Z,98702.16
2023-06-01T08:03:07.601Z,98700.59
2023-06-01T08:05:39.532Z,98694.94
2023-06-01T08:08:06.362Z,98697.41
2023-06-01T08:10:34.131Z,98694.06
2023-06-01T08:13:00.923Z,98694.59
2023-06-01T08:15:28.442Z,98686.31
2023-06-01T08:17:58.325Z,98684.88
2023-06-01T08:20:26.965Z,98696.91
2023-06-01T08:22:54.612Z,98684.50
2023-06-01T08:25:21.931Z,98688.56
2023-06-01T08:27:50.255Z,98684.72
2023-06-01T08:30:16.876Z,98677.72
2023-06-01T08:32:43.476Z,98681.59
2023-06-01T08:35:10.232Z,98683.78
2023-06-01T08:37:37.641Z,98677.94
2023-06-01T08:40:11.226Z,98669.25
2023-06-01T08:42:48.502Z,98668.94
2023-06-01T08:45:15.253Z,98662.44
2023-06-01T08:47:43.090Z,98671.91
2023-06-01T08:50:16.447Z,98670.09
2023-06-01T08:52:45.725Z,98669.72
2023-06-01T08:55:12.851Z,98667.28
2023-06-01T08:57:43.323Z,98669.16
2023-06-01T09:00:15.947Z,98661.16
2023-06-01T09:02:44.045Z,98661.53
2023-06-01T09:05:12.448Z,98663.91
2023-06-01T09:07:41.122Z,98661.31
2023-06-01T09:10:08.701Z,98663.81
2023-06-01T09:12:35.855Z,98653.22
2023-06-01T09:15:10.318Z,98654.44
2023-06-01T09:17:37.982Z,98664.00
2023-06-01T09:20:06.065Z,98658.41
2023-06-01T09:22:46.573Z,98661.63
2023-06-01T09:25:16.150Z,98662.91
2023-06-01T09:27:46.649Z,98651.19
2023-06-01T09:30:14.861Z,98660.91
2023-06-01T09:32:42.981Z,98656.97
2023-06-01T09:35:09.721Z,98653.09
2023-06-01T09:37:39.086Z,98645.63
2023-06-01T09:40:20.355Z,98654.00
2023-06-01T09:42:50.979Z,98642.50
2023-06-01T09:45:21.716Z,98644.13
2023-06-01T09:47:52.690Z,98641.00
2023-06-01T09:50:40.281Z,98637.84
2023-06-01T09:53:07.629Z,98643.88
2023-06-01T09:55:34.334Z,98629.13
2023-06-01T09:58:21.936Z,98629.22
2023-06-01T10:00:52.709Z,98630.03
2023-06-01T10:03:21.653Z,98623.31
2023-06-01T10:05:49.768Z,98619.72
2023-06-01T10:08:18.342Z,98622.88
2023-06-01T10:10:47.366Z,98622.78
2023-06-01T10:13:14.760Z,98618.91
2023-06-01T10:15:41.821Z,98615.34
2023-06-01T10:18:09.359Z,98603.09
2023-06-01T10:20:38.149Z,98607.88
2023-06-01T10:23:07.422Z,98598.72
2023-06-01T10:25:47.307Z,98599.50
2023-06-01T10:28:15.166Z,98599.53
2023-06-01T10:30:43.247Z,98595.91
2023-06-01T10:33:10.098Z,98598.69
2023-06-01T10:35:42.762Z,98593.47
2023-06-01T10:38:15.508Z,98591.41
2023-06-01T10:40:43.640Z,98590.53
2023-06-01T10:43:39.056Z,98593.34
2023-06-01T10:46:34.195Z,98588.50
2023-06-01T10:49:00.901Z,98590.00
2023-06-01T10:51:29.257Z,98589.25
2023-06-01T10:54:18.156Z,98581.41
2023-06-01T10:56:44.976Z,98581.03
2023-06-01T10:59:18.973Z,98575.19
2023-06-01T11:01:48.389Z,98576.00
2023-06-01T11:04:16.530Z,98574.34
2023-06-01T11:06:44.965Z,98579.41
2023-06-01T11:09:13.152Z,98571.78
2023-06-01T11:11:49.247Z,98565.47
2023-06-01T11:14:17.374Z,98565.81
2023-06-01T11:16:48.799Z,98564.78
2023-06-01T11:19:22.030Z,98568.41
2023-06-01T11:21:50.626Z,98565.97
2023-06-01T11:24:18.907Z,98569.41
2023-06-01T11:26:47.927Z,98561.44
2023-06-01T11:29:23.224Z,98564.06
2023-06-01T11:31:51.804Z,98560.03
2023-06-01T11:34:20.110Z,98556.75
2023-06-01T11:36:51.800Z,98560.38
2023-06-01T11:39:23.864Z,98561.34
2023-06-01T11:42:13.846Z,98557.75
2023-06-01T11:44:42.423Z,98549.78
2023-06-01T11:47:10.665Z,98544.63
2023-06-01T11:49:50.642Z,98538.41
2023-06-01T11:52:20.701Z,98542.22
2023-06-01T11:54:48.960Z,98539.38
2023-06-01T11:57:16.020Z,98539.88
2023-06-01T11:59:47.702Z,98536.31
2023-06-01T12:02:27.480Z,98533.31
2023-06-01T12:04:59.839Z,98529.50
2023-06-01T12:07:26.944Z,98529.84
2023-06-01T12:09:59.173Z,98527.44
2023-06-01T12:12:27.821Z,98529.38
2023-06-01T12:14:56.458Z,98511.47
2023-06-01T12:17:24.072Z,98521.38
2023-06-01T12:19:51.472Z,98525.97
2023-06-01T12:22:18.439Z,98521.06
2023-06-01T12:24:45.925Z,98511.72
2023-06-01T12:27:23.569Z,98510.63
2023-06-01T12:29:52.959Z,98515.84
2023-06-01T12:32:20.846Z,98506.91
2023-06-01T12:35:04.731Z,98502.84
2023-06-01T12:37:33.038Z,98499.38
2023-06-01T12:40:02.642Z,98505.56
2023-06-01T12:42:39.233Z,98500.53
2023-06-01T12:45:11.421Z,98479.06
2023-06-01T12:47:39.800Z,98486.59
2023-06-01T12:50:08.439Z,98490.69
2023-06-01T12:52:43.745Z,98484.78
2023-06-01T12:55:11.407Z,98479.44
2023-06-01T12:57:39.573Z,98478.69
2023-06-01T13:00:08.032Z,98478.47
2023-06-01T13:02:37.030Z,98480.81
2023-06-01T13:05:06.080Z,98488.91
2023-06-01T13:07:32.778Z,98482.63
2023-06-01T13:09:59.998Z,98471.94
2023-06-01T13:12:29.006Z,98468.19
2023-06-01T13:14:56.991Z,98470.50
2023-06-01T13:17:23.810Z,98469.72
2023-06-01T13:19:50.697Z,98468.81
2023-06-01T13:22:17.254Z,98474.09
2023-06-01T13:27:13.810Z,98466.78
2023-06-01T13:29:40.545Z,98459.28
2023-06-01T13:32:07.471Z,98463.81
2023-06-01T13:34:34.328Z,98466.41
2023-06-01T13:37:02.145Z,98456.06
2023-06-01T13:39:28.679Z,98453.34
2023-06-01T13:41:55.445Z,98451.44
2023-06-01T13:44:23.385Z,98441.91
2023-06-01T13:46:50.841Z,98444.19
2023-06-01T13:49:17.675Z,98448.81
2023-06-01T13:51:44.674Z,98442.19
2023-06-01T13:54:14.337Z,98438.19
2023-06-01T13:56:43.025Z,98433.53
2023-06-01T13:59:09.515Z,98436.16
2023-06-01T14:01:36.543Z,98430.81
2023-06-01T14:04:04.512Z,98429.38
2023-06-01T14:06:31.928Z,98418.75
2023-06-01T14:09:00.555Z,98422.19
2023-06-01T14:11:29.890Z,98422.25
2023-06-01T14:13:57.968Z,98418.38
2023-06-01T14:16:24.495Z,98419.88
2023-06-01T14:18:51.052Z,98413.38
2023-06-01T14:21:17.963Z,98414.97
2023-06-01T14:23:49.235Z,98408.69
2023-06-01T14:26:15.808Z,98410.66
2023-06-01T14:28:42.504Z,98407.91
2023-06-01T14:31:09.112Z,98417.28
2023-06-01T14:33:35.876Z,98414.38
2023-06-01T14:36:02.698Z,98409.06
2023-06-01T14:38:30.570Z,98397.63
2023-06-01T14:40:57.362Z,98398.69
2023-06-01T14:43:23.976Z,98394.50
2023-06-01T14:45:50.574Z,98395.63
2023-06-01T14:48:17.400Z,98394.72
2023-06-01T14:50:44.051Z,98393.72
2023-06-01T14:53:10.655Z,98383.59
2023-06-01T14:55:37.119Z,98388.31
2023-06-01T14:58:03.878Z,98380.50
2023-06-01T15:00:30.726Z,98381.56
2023-06-01T15:02:57.493Z,98387.94
2023-06-01T15:05:24.483Z,98384.94
2023-06-01T15:07:52.576Z,98378.06
2023-06-01T15:10:19.276Z,98373.25
2023-06-01T15:12:46.309Z,98379.06
2023-06-01T15:15:16.266Z,98374.78
2023-06-01T15:17:42.796Z,98380.28
2023-06-01T15:20:09.765Z,98370.19
2023-06-01T15:22:37.843Z,98376.75
2023-06-01T15:25:05.179Z,98367.75
2023-06-01T15:27:32.152Z,98365.72
2023-06-01T15:29:58.751Z,98363.03
2023-06-01T15:32:25.575Z,98366.19
2023-06-01T15:34:52.268Z,98366.00
2023-06-01T15:37:21.188Z,98368.19
2023-06-01T15:39:48.104Z,98362.19
2023-06-01T15:42:16.236Z,98363.09
2023-06-01T15:44:44.825Z,98368.19
2023-06-01T15:47:12.627Z,98363.56
2023-06-01T15:49:42.416Z,98359.38
2023-06-01T15:52:09.415Z,98367.97
2023-06-01T15:54:37.316Z,98358.63
2023-06-01T15:57:08.668Z,98348.78
2023-06-01T15:59:35.811Z,98352.91
2023-06-01T16:02:06.668Z,98349.09
2023-06-01T16:04:33.497Z,98347.94
2023-06-01T16:07:00.221Z,98344.16
2023-06-01T16:09:28.238Z,98345.13
2023-06-01T16:11:54.820Z,98345.75
2023-06-01T16:14:21.622Z,98341.44
2023-06-01T16:16:49.814Z,98336.94
2023-06-01T16:19:16.603Z,98332.81
2023-06-01T16:21:43.401Z,98338.31
2023-06-01T16:24:09.924Z,98323.38
2023-06-01T16:26:36.633Z,98321.75
2023-06-01T16:29:03.321Z,98317.63
2023-06-01T16:31:29.934Z,98317.47
2023-06-01T16:33:58.804Z,98311.84
2023-06-01T16:36:25.322Z,98318.66
2023-06-01T16:38:51.965Z,98317.38
2023-06-01T16:41:19.006Z,98310.22
2023-06-01T16:43:48.572Z,98305.13
2023-06-01T16:46:15.139Z,98305.50
2023-06-01T16:48:42.801Z,98312.53
2023-06-01T16:51:10.640Z,98320.56
2023-06-01T16:53:37.323Z,98307.69
2023-06-01T16:56:04.334Z,98310.00
2023-06-01T16:58:31.232Z,98298.28
2023-06-01T17:01:02.274Z,98307.88
2023-06-01T17:03:31.715Z,98305.66
2023-06-01T17:05:58.504Z,98299.03
2023-06-01T17:08:26.368Z,98303.09
2023-06-01T17:10:52.875Z,98292.78
2023-06-01T17:13:19.418Z,98298.53
2023-06-01T17:15:46.155Z,98300.97
2023-06-01T17:18:14.232Z,98292.50
2023-06-01T17:20:43.927Z,98294.25
2023-06-01T17:23:10.762Z,98297.13
2023-06-01T17:25:37.266Z,98295.06
2023-06-01T17:28:04.298Z,98291.41
2023-06-01T17:30:31.574Z,98290.16
2023-06-01T17:32:58.786Z,98293.09
2023-06-01T17:35:25.905Z,98297.78
2023-06-01T17:37:52.823Z,98290.81
2023-06-01T17:40:19.420Z,98288.84
2023-06-01T17:42:46.427Z,98286.47
2023-06-01T17:45:14.598Z,98289.84
2023-06-01T17:47:41.415Z,98291.38
2023-06-01T17:50:08.426Z,98292.72
2023-06-01T17:52:35.493Z,98293.31
2023-06-01T17:55:02.033Z,98295.47
2023-06-01T17:57:28.571Z,98284.72
2023-06-01T17:59:55.110Z,98283.00
2023-06-01T18:02:21.677Z,98287.09
2023-06-01T18:04:50.180Z,98288.47
2023-06-01T18:07:18.054Z,98287.59
2023-06-01T18:09:49.631Z,98294.84
2023-06-01T18:12:16.488Z,98294.16
2023-06-01T18:14:43.126Z,98295.06
2023-06-01T18:17:09.598Z,98294.28
2023-06-01T18:19:36.393Z,98284.78
2023-06-01T18:22:05.613Z,98290.44
2023-06-01T18:24:32.318Z,98292.09
2023-06-01T18:27:01.389Z,98283.41
2023-06-01T18:29:28.249Z,98292.59
2023-06-01T18:31:55.135Z,98285.09
2023-06-01T18:34:22.138Z,98281.16
2023-06-01T18:36:49.194Z,98290.75
2023-06-01T18:39:16.200Z,98288.44
2023-06-01T18:41:42.851Z,98290.84
2023-06-01T18:44:09.902Z,98292.47
2023-06-01T18:46:38.576Z,98287.31
2023-06-01T18:49:06.038Z,98295.69
2023-06-01T18:51:33.024Z,98292.56
2023-06-01T18:54:01.565Z,98287.78
2023-06-01T18:56:29.556Z,98294.16
2023-06-01T18:58:57.717Z,98283.06
2023-06-01T19:01:26.404Z,98291.84
2023-06-01T19:03:54.081Z,98295.06
2023-06-01T19:06:21.628Z,98296.66
2023-06-01T19:08:48.427Z,98292.69
2023-06-01T19:11:15.104Z,98291.50
2023-06-01T19:13:52.817Z,98299.03
2023-06-01T19:16:29.962Z,98295.88
2023-06-01T19:18:58.889Z,98292.72
2023-06-01T19:21:30.777Z,98294.28
2023-06-01T19:23:58.789Z,98297.47
2023-06-01T19:26:38.595Z,98299.09
2023-06-01T19:29:09.427Z,98301.84
2023-06-01T19:31:38.441Z,98303.00
2023-06-01T19:34:07.212Z,98301.41
2023-06-01T19:36:43.435Z,98304.56
2023-06-01T19:39:16.302Z,98302.59
2023-06-01T19:41:44.336Z,98314.84
2023-06-01T19:44:17.274Z,98310.09
2023-06-01T19:46:43.853Z,98306.91
2023-06-01T19:49:15.590Z,98311.25
2023-06-01T19:51:43.423Z,98314.00
2023-06-01T19:54:19.333Z,98317.56
2023-06-01T19:56:48.280Z,98313.97
2023-06-01T19:59:23.784Z,98316.31
2023-06-01T20:01:50.945Z,98317.84
2023-06-01T20:04:18.012Z,98317.81
2023-06-01T20:06:47.171Z,98321.34
2023-06-01T20:09:18.868Z,98321.75
2023-06-01T20:11:51.476Z,98318.13
2023-06-01T20:14:35.228Z,98320.06
2023-06-01T20:17:07.724Z,98316.06
2023-06-01T20:19:34.687Z,98320.00
2023-06-01T20:22:02.180Z,98319.94
2023-06-01T20:24:30.915Z,98321.47
2023-06-01T20:27:00.785Z,98322.22
2023-06-01T20:29:29.527Z,98324.50
2023-06-01T20:31:57.831Z,98323.63
2023-06-01T20:34:25.835Z,98327.56
2023-06-01T20:36:52.803Z,98316.03
2023-06-01T20:39:21.165Z,98319.53
2023-06-01T20:41:48.600Z,98324.25
2023-06-01T20:44:17.782Z,98321.03
2023-06-01T20:46:45.137Z,98321.03
2023-06-01T20:49:11.891Z,98320.25
2023-06-01T20:51:45.540Z,98328.94
2023-06-01T20:54:15.109Z,98324.91
2023-06-01T20:56:57.366Z,98335.16
2023-06-01T20:59:32.799Z,98331.94
2023-06-01T21:02:01.693Z,98332.66
2023-06-01T21:04:36.018Z,98333.81
2023-06-01T21:07:04.849Z,98335.78
2023-06-01T21:09:32.635Z,98331.03
2023-06-01T21:11:59.656Z,98342.91
2023-06-01T21:14:26.456Z,98341.72
2023-06-01T21:16:53.291Z,98338.53
2023-06-01T21:19:21.889Z,98341.72
2023-06-01T21:21:48.720Z,98338.94
2023-06-01T21:24:17.859Z,98336.09
2023-06-01T21:26:45.763Z,98341.53
2023-06-01T21:29:13.268Z,98342.63
2023-06-01T21:31:39.969Z,98341.00
2023-06-01T21:34:06.844Z,98343.69
2023-06-01T21:36:33.488Z,98344.41
2023-06-01T21:39:00.488Z,98351.09
2023-06-01T21:41:29.570Z,98347.94
2023-06-01T21:43:56.435Z,98341.53
2023-06-01T21:46:23.213Z,98343.81
2023-06-01T21:48:49.975Z,98338.81
2023-06-01T21:51:16.883Z,98347.97
2023-06-01T21:53:44.760Z,98344.34
2023-06-01T21:56:11.705Z,98345.06
2023-06-01T21:58:39.223Z,98347.78
2023-06-01T22:01:07.031Z,98362.66
2023-06-01T22:03:34.953Z,98366.31
2023-06-01T22:06:02.263Z,98365.97
2023-06-01T22:08:29.220Z,98372.94
2023-06-01T22:10:57.231Z,98378.31
2023-06-01T22:13:24.119Z,98386.06
2023-06-01T22:15:50.747Z,98383.59
2023-06-01T22:18:17.385Z,98390.22
2023-06-01T22:20:44.028Z,98391.31
2023-06-01T22:23:10.948Z,98388.97
2023-06-01T22:25:38.719Z,98391.06
2023-06-01T22:28:06.453Z,98389.97
2023-06-01T22:30:34.762Z,98397.16
2023-06-01T22:33:02.875Z,98393.94
2023-06-01T22:35:29.573Z,98389.44
2023-06-01T22:37:56.560Z,98396.31
2023-06-01T22:40:23.487Z,98391.91
2023-06-01T22:42:53.778Z,98391.91
2023-06-01T22:45:21.711Z,98388.00
2023-06-01T22:47:49.153Z,98399.03
2023-06-01T22:50:19.940Z,98394.22
2023-06-01T22:52:47.503Z,98393.28
2023-06-01T22:55:14.426Z,98398.75
2023-06-01T22:57:41.199Z,98408.88
2023-06-01T23:00:08.770Z,98409.53
2023-06-01T23:02:35.706Z,98409.75
2023-06-01T23:05:04.816Z,98398.13
2023-06-01T23:07:33.433Z,98405.09
2023-06-01T23:10:01.510Z,98405.09
2023-06-01T23:12:31.141Z,98405.66
2023-06-01T23:14:57.801Z,98408.25
2023-06-01T23:17:27.749Z,98405.84
2023-06-01T23:19:54.725Z,98408.97
2023-06-01T23:22:21.764Z,98396.56
2023-06-01T23:24:48.330Z,98399.50
2023-06-01T23:27:15.394Z,98396.22
2023-06-01T23:29:43.256Z,98402.53
2023-06-01T23:32:10.767Z,98405.66
2023-06-01T23:34:39.402Z,98408.84
2023-06-01T23:37:06.916Z,98411.06
2023-06-01T23:39:33.762Z,98408.22
2023-06-01T23:42:00.551Z,98414.81
2023-06-01T23:44:29.711Z,98407.53
2023-06-01T23:46:56.337Z,98410.72
2023-06-01T23:49:23.289Z,98401.31
2023-06-01T23:51:51.638Z,98411.09
2023-06-01T23:54:18.419Z,98408.97
2023-06-01T23:56:45.277Z,98414.97
2023-06-01T23:59:11.966Z,98411.16
